Time;durP1;ratioP1;P1;durP2;ratioP2;P2;SDS_P1;SDS_P2;PMS_P1;PMS_P2;Temp;Humidity;BMP_temperature;BMP_pressure;BME280_temperature;BME280_humidity;BME280_pressure;Samples;Min_cycle;Max_cycle;Signal;HPM_P1;HPM_P2
2022/05/27 00:01:26;;;;;;;10.83;9.73;;;13.90;99.90;;;14.12;88.04;100945.53;5057641;28;20452;-70
2022/05/27 00:03:59;;;;;;;15.70;10.77;;;13.90;99.90;;;14.03;88.73;100946.91;5047949;28;20414;-69
2022/05/27 00:06:30;;;;;;;16.80;9.17;;;13.90;99.90;;;14.09;89.27;100935.09;5050862;28;20924;-69
2022/05/27 00:09:00;;;;;;;14.70;9.50;;;13.90;99.90;;;14.20;89.53;100934.38;5051029;28;20478;-69
2022/05/27 00:11:29;;;;;;;15.60;10.80;;;14.00;99.90;;;14.16;89.08;100924.16;5033255;28;20454;-69
2022/05/27 00:13:58;;;;;;;12.03;10.83;;;14.00;99.90;;;14.14;89.02;100926.25;5051140;28;20430;-69
2022/05/27 00:16:28;;;;;;;13.17;11.80;;;14.00;99.90;;;14.07;88.89;100929.06;5051300;28;20513;-70
2022/05/27 00:18:59;;;;;;;13.83;10.33;;;13.90;99.90;;;14.10;89.35;100923.16;5052257;28;20420;-69
2022/05/27 00:21:28;;;;;;;17.03;11.00;;;13.90;99.90;;;14.18;89.16;100922.88;5054914;28;20443;-70
2022/05/27 00:23:59;;;;;;;15.17;10.23;;;14.00;99.90;;;14.23;88.39;100909.41;5058037;28;20430;-71
2022/05/27 00:26:28;;;;;;;14.73;10.70;;;14.00;99.90;;;14.23;88.40;100908.59;5061426;28;20411;-70
2022/05/27 00:28:58;;;;;;;18.03;12.30;;;14.00;99.90;;;14.28;88.52;100912.28;5067138;28;20427;-70
2022/05/27 00:31:30;;;;;;;16.30;12.33;;;14.10;99.90;;;14.18;88.97;100905.72;5071105;28;20453;-70
2022/05/27 00:34:01;;;;;;;15.00;11.63;;;14.00;99.90;;;14.25;89.32;100901.84;5075891;28;20399;-69
2022/05/27 00:36:29;;;;;;;17.60;11.73;;;14.00;99.90;;;14.30;88.76;100904.75;5079723;28;20407;-68
2022/05/27 00:39:01;;;;;;;13.80;10.37;;;14.10;99.90;;;14.30;88.71;100903.91;5079306;28;20494;-69
2022/05/27 00:41:33;;;;;;;13.07;9.73;;;14.10;99.90;;;14.18;88.91;100886.66;5071949;28;20447;-69
2022/05/27 00:44:02;;;;;;;11.30;9.17;;;14.00;99.90;;;14.19;89.09;100891.03;5065819;28;20494;-69
2022/05/27 00:46:34;;;;;;;13.73;10.03;;;14.00;99.90;;;14.22;89.12;100888.72;5038076;28;20856;-69
2022/05/27 00:49:13;;;;;;;14.70;11.07;;;14.00;99.90;;;14.28;88.98;100884.25;5054935;28;20481;-69
2022/05/27 00:51:51;;;;;;;10.70;8.30;;;14.00;99.90;;;14.22;88.92;100869.66;5036603;28;20877;-69
2022/05/27 00:54:25;;;;;;;14.67;9.03;;;14.00;99.90;;;14.20;88.86;100888.09;5036280;28;20406;-69
2022/05/27 00:57:02;;;;;;;9.07;6.93;;;14.00;99.90;;;14.18;89.00;100878.50;5054227;28;20426;-69
2022/05/27 00:59:43;;;;;;;10.47;8.90;;;14.00;99.90;;;14.16;90.01;100875.16;5053944;28;20494;-68
2022/05/27 01:02:13;;;;;;;10.63;8.73;;;14.00;99.90;;;14.22;89.87;100875.09;5053951;28;20422;-69
2022/05/27 01:04:44;;;;;;;9.97;6.40;;;14.00;99.90;;;14.19;89.91;100870.09;5053987;28;20446;-69
2022/05/27 01:07:14;;;;;;;13.60;8.07;;;14.00;99.90;;;14.22;90.13;100869.66;5054111;28;20824;-69
2022/05/27 01:09:47;;;;;;;13.40;9.20;;;14.00;99.90;;;14.18;90.74;100868.44;5053832;28;20394;-69
2022/05/27 01:12:48;;;;;;;8.60;7.70;;;14.00;99.90;;;14.24;91.13;100872.13;5053742;28;20439;-69
2022/05/27 01:15:34;;;;;;;10.90;8.37;;;14.00;99.90;;;14.22;91.08;100861.50;5054158;28;20414;-69
2022/05/27 01:20:18;;;;;;;9.97;7.70;;;14.00;99.90;;;14.32;91.16;100864.53;5054079;28;20415;-69
2022/05/27 01:21:32;;;;;;;9.17;8.23;;;14.10;99.90;;;14.32;90.58;100859.06;5053954;28;20517;-69
2022/05/27 01:24:30;;;;;;;10.80;8.23;;;14.10;99.90;;;14.31;90.97;100862.00;5053732;28;20477;-69
2022/05/27 01:27:25;;;;;;;8.77;7.33;;;14.10;99.90;;;14.37;90.70;100860.31;5054172;28;20469;-69
2022/05/27 01:30:24;;;;;;;10.03;7.50;;;14.10;99.90;;;14.34;90.41;100859.66;5053752;28;20407;-69
2022/05/27 01:33:11;;;;;;;10.10;8.63;;;14.20;99.90;;;14.37;90.74;100847.53;5053942;28;20894;-69
2022/05/27 01:35:47;;;;;;;12.73;9.50;;;14.20;99.90;;;14.30;90.90;100842.13;5053703;28;20913;-70
2022/05/27 01:38:23;;;;;;;10.63;8.97;;;14.10;99.90;;;14.41;90.18;100842.47;5054003;28;20403;-69
2022/05/27 01:41:04;;;;;;;12.00;10.10;;;14.20;99.90;;;14.33;90.49;100838.94;5059668;28;20477;-69
2022/05/27 01:43:42;;;;;;;16.60;8.60;;;14.20;99.90;;;14.38;90.63;100842.94;5062696;28;20892;-69
2022/05/27 01:46:17;;;;;;;13.57;9.00;;;14.20;99.90;;;14.50;90.03;100841.09;5072503;28;20465;-70
2022/05/27 01:49:03;;;;;;;13.13;10.60;;;14.20;99.90;;;14.44;90.36;100839.25;5069782;28;20824;-70
2022/05/27 01:51:39;;;;;;;15.70;9.87;;;14.20;99.90;;;14.37;89.96;100833.94;5056555;28;20844;-69
2022/05/27 01:54:18;;;;;;;11.47;8.97;;;14.20;99.90;;;14.41;90.23;100826.97;5036717;28;20903;-69
2022/05/27 01:56:53;;;;;;;13.70;9.93;;;14.20;99.90;;;14.35;90.06;100836.00;5053956;28;20419;-69
2022/05/27 01:59:30;;;;;;;12.10;10.33;;;14.20;99.90;;;14.37;90.55;100839.38;5053021;28;20820;-69
2022/05/27 02:02:09;;;;;;;16.50;10.73;;;14.20;99.90;;;14.35;90.71;100831.38;5053223;28;20940;-69
2022/05/27 02:04:46;;;;;;;13.20;9.30;;;14.20;99.90;;;14.44;90.23;100828.38;5053425;28;20422;-69
2022/05/27 02:07:23;;;;;;;11.60;10.40;;;14.20;99.90;;;14.35;89.79;100831.38;5053305;28;20889;-68
2022/05/27 02:09:59;;;;;;;13.50;10.53;;;14.20;99.90;;;14.31;89.97;100830.19;5052710;28;20894;-69
2022/05/27 02:12:38;;;;;;;16.93;11.30;;;14.20;99.90;;;14.33;90.60;100828.06;5052428;28;20447;-69
2022/05/27 02:15:15;;;;;;;16.57;11.60;;;14.10;99.90;;;14.33;90.54;100817.16;5052758;28;20431;-69
2022/05/27 02:17:53;;;;;;;11.10;9.97;;;14.10;99.90;;;14.39;89.98;100812.72;5053417;28;20425;-69
2022/05/27 02:20:30;;;;;;;12.80;11.43;;;14.20;99.90;;;14.39;90.29;100814.63;5057488;28;20874;-69
2022/05/27 02:23:07;;;;;;;13.73;11.17;;;14.20;99.90;;;14.41;89.46;100823.41;5060100;28;20394;-69
2022/05/27 02:25:41;;;;;;;11.80;10.53;;;14.20;99.90;;;14.34;89.55;100818.84;5065045;28;20398;-70
2022/05/27 02:28:16;;;;;;;14.07;10.03;;;14.20;99.90;;;14.42;90.01;100827.78;5069572;28;20529;-70
2022/05/27 02:30:52;;;;;;;15.03;10.07;;;14.20;99.90;;;14.39;89.48;100820.06;5065822;28;20443;-70
2022/05/27 02:36:20;;;;;;;11.57;10.37;;;14.20;99.90;;;14.37;89.80;100820.31;5052269;28;20427;-69
2022/05/27 02:38:50;;;;;;;13.47;8.60;;;14.20;99.90;;;14.44;89.71;100822.94;5052106;28;20427;-69
2022/05/27 02:41:40;;;;;;;15.03;10.43;;;14.20;99.90;;;14.31;90.25;100832.91;5051930;28;20917;-69
2022/05/27 02:44:25;;;;;;;12.13;10.33;;;14.20;99.90;;;14.36;89.80;100832.25;5052372;28;20412;-69
2022/05/27 02:47:06;;;;;;;14.87;10.20;;;14.20;99.90;;;14.39;89.30;100833.69;5051821;28;20423;-69
2022/05/27 02:49:49;;;;;;;12.93;10.23;;;14.20;99.90;;;14.37;89.56;100827.66;5052360;28;20427;-69
2022/05/27 02:52:36;;;;;;;16.03;10.30;;;14.20;99.90;;;14.31;89.49;100808.41;5033970;28;20465;-69
2022/05/27 02:55:18;;;;;;;12.50;10.43;;;14.10;99.90;;;14.34;89.40;100816.09;5051967;28;20412;-69
2022/05/27 02:57:50;;;;;;;18.73;10.13;;;14.20;99.90;;;14.43;89.76;100822.09;5051798;28;20937;-69
2022/05/27 03:00:24;;;;;;;11.83;9.30;;;14.20;99.90;;;14.30;89.58;100823.06;5051649;28;20724;-69
2022/05/27 03:02:54;;;;;;;11.37;9.20;;;14.20;99.90;;;14.30;89.88;100822.25;5051611;28;20439;-69
2022/05/27 03:05:31;;;;;;;11.90;9.80;;;14.20;99.90;;;14.27;88.73;100825.44;5051564;28;20431;-69
2022/05/27 03:08:17;;;;;;;12.47;8.77;;;14.10;99.90;;;14.24;88.94;100828.59;5051655;28;20410;-69
2022/05/27 03:11:08;;;;;;;11.73;8.80;;;14.10;99.90;;;14.23;89.02;100816.88;5052171;28;20501;-69
2022/05/27 03:14:18;;;;;;;11.00;8.60;;;14.10;99.90;;;14.28;88.37;100819.72;5033804;28;20431;-69
2022/05/27 03:17:04;;;;;;;11.23;8.40;;;14.10;99.90;;;14.28;88.33;100808.84;5033494;28;20439;-69
2022/05/27 03:19:51;;;;;;;13.77;7.63;;;14.10;99.90;;;14.26;88.41;100813.72;5051550;28;20530;-69
2022/05/27 03:22:43;;;;;;;12.90;8.90;;;14.10;99.90;;;14.26;88.71;100807.44;5051279;28;20557;-69
2022/05/27 03:25:24;;;;;;;10.40;8.50;;;14.10;99.90;;;14.24;88.52;100812.25;5051487;28;20407;-69
2022/05/27 03:28:02;;;;;;;10.30;7.87;;;14.10;99.90;;;14.17;89.12;100806.91;5051028;28;20419;-69
2022/05/27 03:30:37;;;;;;;12.37;9.00;;;14.00;99.90;;;14.24;88.58;100809.53;5050887;28;20427;-69
2022/05/27 03:33:19;;;;;;;11.27;7.60;;;14.10;99.90;;;14.27;88.79;100807.22;5050892;28;20772;-69
2022/05/27 03:35:56;;;;;;;10.20;7.83;;;14.10;99.90;;;14.29;88.23;100813.25;5032888;28;20435;-69
2022/05/27 03:38:37;;;;;;;9.73;8.17;;;14.10;99.90;;;14.21;88.74;100807.28;5051218;28;20497;-70
2022/05/27 03:41:14;;;;;;;11.30;8.63;;;14.00;99.90;;;14.18;88.74;100807.75;5051427;28;20462;-69
2022/05/27 03:43:46;;;;;;;10.73;8.03;;;14.00;99.90;;;14.19;88.57;100810.22;5051086;28;20422;-69
2022/05/27 03:46:30;;;;;;;12.33;8.40;;;14.10;99.90;;;14.15;87.66;100809.03;5050748;28;20457;-69
2022/05/27 03:48:59;;;;;;;11.77;8.43;;;14.00;99.90;;;14.11;88.45;100815.13;5051054;28;20729;-69
2022/05/27 03:51:34;;;;;;;10.83;7.80;;;14.00;99.90;;;14.19;87.48;100815.66;5050307;28;20542;-69
2022/05/27 03:54:09;;;;;;;10.30;8.43;;;14.00;99.90;;;14.19;87.93;100810.22;5050613;28;20407;-69
2022/05/27 03:56:42;;;;;;;9.87;7.17;;;14.00;99.90;;;14.17;87.99;100809.63;5050141;28;20423;-68
2022/05/27 03:59:14;;;;;;;10.83;7.33;;;14.00;99.90;;;14.16;87.60;100823.47;5050567;28;20811;-69
2022/05/27 04:01:46;;;;;;;8.43;7.63;;;14.00;99.90;;;14.11;87.17;100812.41;5032833;28;20989;-69
2022/05/27 04:04:19;;;;;;;8.60;7.63;;;14.00;99.90;;;14.19;87.35;100814.81;5050705;28;20412;-69
2022/05/27 04:06:49;;;;;;;7.43;6.73;;;14.00;99.90;;;14.18;87.61;100819.47;5050541;28;20425;-69
2022/05/27 04:09:22;;;;;;;13.83;8.73;;;14.00;99.90;;;14.16;86.87;100818.00;5050906;28;20474;-69
2022/05/27 04:11:52;;;;;;;10.73;8.00;;;14.00;99.90;;;14.21;86.90;100810.84;5050090;28;20439;-69
2022/05/27 04:14:22;;;;;;;9.43;8.10;;;14.00;99.90;;;14.19;87.39;100814.81;5050439;28;20422;-69
2022/05/27 04:16:51;;;;;;;8.73;7.83;;;14.00;99.90;;;14.18;87.27;100818.63;5050693;28;20401;-69
2022/05/27 04:19:20;;;;;;;10.30;8.10;;;14.00;99.90;;;14.16;87.90;100815.28;5051118;28;20453;-69
2022/05/27 04:21:49;;;;;;;9.73;7.53;;;14.00;99.90;;;14.20;87.55;100811.88;5050670;28;20459;-69
2022/05/27 04:24:20;;;;;;;12.80;8.73;;;14.00;99.90;;;14.23;87.29;100814.13;5050996;28;20465;-69
2022/05/27 04:26:48;;;;;;;13.90;8.30;;;14.10;99.90;;;14.18;87.75;100800.41;5051072;28;20461;-69
2022/05/27 04:29:17;;;;;;;11.07;8.10;;;14.00;99.90;;;14.32;86.88;100799.19;5051024;28;20475;-69
2022/05/27 04:31:46;;;;;;;12.77;8.47;;;14.10;99.90;;;14.28;87.54;100797.97;5050540;28;20750;-69
2022/05/27 04:34:15;;;;;;;9.13;8.23;;;14.10;99.90;;;14.33;87.06;100800.00;5050861;28;20424;-69
2022/05/27 04:36:44;;;;;;;10.87;7.30;;;14.10;99.90;;;14.37;86.24;100789.53;5050344;28;20522;-69
2022/05/27 04:39:14;;;;;;;12.87;8.40;;;14.20;99.90;;;14.43;86.01;100799.47;5050486;28;20404;-69
2022/05/27 04:41:46;;;;;;;9.30;8.40;;;14.20;99.90;;;14.37;85.99;100805.88;5050048;28;20455;-69
2022/05/27 04:44:14;;;;;;;8.90;8.00;;;14.20;99.90;;;14.42;85.65;100814.19;5050385;28;20447;-69
2022/05/27 04:46:45;;;;;;;8.77;7.87;;;14.30;99.90;;;14.41;86.03;100807.91;5049976;28;20868;-69
2022/05/27 04:49:50;;;;;;;10.33;8.30;;;14.20;99.90;;;14.46;85.11;100815.38;5050320;28;20423;-68
2022/05/27 04:52:05;;;;;;;9.53;8.33;;;14.30;99.90;;;14.46;86.00;100820.81;5053658;28;20494;-69
2022/05/27 04:54:34;;;;;;;10.37;9.00;;;14.30;99.90;;;14.46;85.88;100809.94;5052783;28;20419;-69
2022/05/27 04:57:05;;;;;;;11.07;7.27;;;14.30;99.90;;;14.48;85.98;100816.78;5050372;28;20419;-69
2022/05/27 04:59:36;;;;;;;13.60;6.87;;;14.30;99.90;;;14.47;85.35;100814.31;5048960;28;20490;-69
2022/05/27 05:02:05;;;;;;;10.13;8.40;;;14.30;99.90;;;14.53;85.46;100818.81;5049269;28;20462;-70
2022/05/27 05:04:34;;;;;;;8.33;7.50;;;14.30;99.90;;;14.55;85.54;100816.72;5049376;28;20423;-70
2022/05/27 05:07:08;;;;;;;7.83;7.00;;;14.30;99.90;;;14.53;85.10;100833.28;5045905;28;20508;-70
2022/05/27 05:09:38;;;;;;;9.40;7.67;;;14.30;99.90;;;14.57;85.94;100837.19;5049080;28;20398;-70
2022/05/27 05:12:11;;;;;;;11.30;8.80;;;14.40;99.90;;;14.53;85.56;100829.72;5058161;28;20511;-70
2022/05/27 05:14:41;;;;;;;12.87;8.53;;;14.30;99.90;;;14.61;85.66;100840.31;5065087;28;20414;-70
2022/05/27 05:17:10;;;;;;;7.70;7.00;;;14.40;99.90;;;14.60;85.83;100838.66;5073844;28;20881;-70
2022/05/27 05:19:39;;;;;;;9.67;8.07;;;14.40;99.90;;;14.47;87.26;100838.81;5074786;28;20429;-70
2022/05/27 05:22:08;;;;;;;8.40;7.40;;;14.30;99.90;;;14.49;87.22;100847.56;5062099;28;20541;-70
2022/05/27 05:24:37;;;;;;;14.17;9.90;;;14.30;99.90;;;14.48;86.83;100854.06;5065647;28;20423;-70
2022/05/27 05:27:06;;;;;;;9.50;8.17;;;14.30;99.90;;;14.41;87.40;100851.47;5055919;28;20757;-71
2022/05/27 05:29:36;;;;;;;14.17;8.03;;;14.20;99.90;;;14.38;87.63;100845.66;5073095;28;20490;-70
2022/05/27 05:32:06;;;;;;;12.17;7.50;;;14.20;99.90;;;14.32;87.40;100841.91;5058733;28;20870;-70
2022/05/27 05:34:35;;;;;;;9.73;8.27;;;14.20;99.90;;;14.33;86.97;100841.66;5061816;28;20430;-70
2022/05/27 05:37:05;;;;;;;6.97;6.27;;;14.20;99.90;;;14.26;85.43;100819.16;5060399;28;20399;-70
2022/05/27 05:39:36;;;;;;;9.40;5.43;;;14.10;99.90;;;14.25;85.98;100836.53;5055129;28;20538;-70
2022/05/27 05:42:08;;;;;;;8.83;5.30;;;14.00;99.90;;;14.20;83.11;100830.94;5054512;28;20474;-70
2022/05/27 05:44:38;;;;;;;4.90;4.27;;;14.00;99.90;;;14.14;84.91;100811.97;5053961;28;20791;-69
2022/05/27 05:47:08;;;;;;;6.87;5.87;;;14.00;99.90;;;14.28;84.32;100808.84;5065530;22;20513;-70
2022/05/27 05:49:37;;;;;;;7.60;4.30;;;14.10;99.90;;;14.25;82.50;100795.72;5052015;28;20505;-71
2022/05/27 05:52:07;;;;;;;4.67;4.20;;;14.00;99.90;;;14.10;80.73;100795.25;5036717;28;20950;-70
2022/05/27 05:54:35;;;;;;;4.20;3.80;;;13.90;99.90;;;14.26;81.07;100810.97;5030935;28;20482;-70
2022/05/27 05:57:06;;;;;;;3.57;2.77;;;14.00;99.90;;;14.19;79.78;100823.81;5030555;28;20502;-70
2022/05/27 05:59:38;;;;;;;5.93;3.40;;;14.00;99.90;;;14.36;79.97;100821.38;5030436;28;20420;-70
2022/05/27 06:02:09;;;;;;;4.80;3.40;;;14.00;99.90;;;14.45;80.78;100824.59;5031135;28;20467;-71
2022/05/27 06:04:38;;;;;;;4.67;3.00;;;14.10;99.90;;;14.52;79.09;100809.03;5031871;28;20785;-71
2022/05/27 06:07:13;;;;;;;6.63;2.73;;;14.20;99.90;;;14.51;78.54;100791.00;5032752;28;20926;-72
2022/05/27 06:09:42;;;;;;;3.37;3.07;;;14.20;99.90;;;14.52;79.16;100787.25;5033331;28;20432;-70
2022/05/27 06:12:12;;;;;;;5.83;3.97;;;14.20;99.90;;;14.56;81.21;100785.72;5031762;28;20499;-71
2022/05/27 06:14:43;;;;;;;4.20;3.80;;;14.30;99.90;;;14.42;79.94;100778.78;5033564;28;20407;-70
2022/05/27 06:17:12;;;;;;;6.83;4.10;;;14.20;99.90;;;14.63;80.01;100810.94;5019246;28;20492;-71
2022/05/27 06:19:40;;;;;;;3.93;3.57;;;14.30;99.90;;;15.05;79.72;100809.91;5030249;28;20434;-71
2022/05/27 06:22:09;;;;;;;5.97;4.30;;;14.60;99.90;;;15.32;77.52;100814.94;5031831;28;20464;-70
2022/05/27 06:24:38;;;;;;;5.70;4.27;;;14.80;99.90;;;15.51;77.09;100817.34;5033045;28;20988;-70
2022/05/27 06:27:08;;;;;;;5.00;3.73;;;15.00;99.90;;;15.36;76.59;100816.94;5032838;28;20894;-71
2022/05/27 06:35:11;;;;;;;5.80;3.00;;;15.30;99.90;;;15.74;73.47;100819.25;5014668;28;20456;-70
2022/05/27 06:37:40;;;;;;;4.43;3.27;;;15.40;99.90;;;15.61;73.99;100819.50;5031511;28;20406;-70
2022/05/27 06:40:11;;;;;;;9.57;4.47;;;15.40;99.90;;;15.90;74.03;100820.41;5024771;28;20515;-71
2022/05/27 06:42:40;;;;;;;6.60;6.00;;;15.50;1.00;;;15.89;71.90;100819.59;5030096;28;20833;-69
2022/05/27 06:45:14;;;;;;;6.63;3.63;;;15.50;99.90;;;15.79;72.32;100833.00;5026081;28;20507;-70
2022/05/27 06:47:44;;;;;;;3.70;3.40;;;15.50;99.90;;;15.78;71.21;100817.69;5032656;28;20424;-70
2022/05/27 06:50:13;;;;;;;2.83;2.33;;;15.50;99.90;;;15.91;70.79;100836.56;5033042;28;20828;-70
2022/05/27 06:52:42;;;;;;;9.60;6.70;;;15.60;99.90;;;16.27;70.86;100834.59;5031777;28;21057;-71
2022/05/27 06:55:15;;;;;;;4.97;2.47;;;15.70;99.90;;;16.37;68.79;100829.34;5033191;28;20428;-71
2022/05/27 06:57:44;;;;;;;2.97;2.30;;;15.80;99.90;;;16.14;68.45;100824.78;5032461;28;20424;-70
2022/05/27 07:00:15;;;;;;;7.67;2.83;;;15.80;99.90;;;15.99;69.68;100827.16;5030330;28;20986;-70
2022/05/27 07:02:46;;;;;;;5.40;2.87;;;15.80;99.90;;;16.01;68.70;100831.34;5032343;28;20452;-70
2022/05/27 07:05:16;;;;;;;3.70;2.50;;;15.80;99.90;;;16.27;68.31;100829.13;5032955;28;20939;-72
2022/05/27 07:07:45;;;;;;;2.70;2.50;;;15.90;99.90;;;16.13;66.23;100823.13;5031854;28;20515;-70
2022/05/27 07:10:14;;;;;;;3.70;3.00;;;15.90;99.90;;;16.10;67.98;100823.59;5032504;28;20432;-70
2022/05/27 07:12:42;;;;;;;3.10;2.30;;;15.90;99.90;;;16.45;68.12;100840.75;5031857;28;20586;-72
2022/05/27 07:15:11;;;;;;;4.30;2.67;;;16.00;99.90;;;16.77;66.34;100832.94;5032411;28;20403;-72
2022/05/27 07:17:40;;;;;;;3.30;2.50;;;16.30;99.90;;;16.81;65.95;100836.00;5032052;28;20842;-70
2022/05/27 07:20:12;;;;;;;5.23;2.30;;;16.40;99.90;;;16.99;65.80;100833.06;5032732;28;20439;-70
2022/05/27 07:22:41;;;;;;;2.33;1.90;;;16.60;99.90;;;16.67;63.96;100840.09;5031762;28;20434;-70
2022/05/27 07:25:13;;;;;;;9.63;1.80;;;16.50;95.50;;;16.90;63.92;100823.59;5031791;28;20519;-72
2022/05/27 07:27:42;;;;;;;3.20;2.67;;;16.50;97.90;;;16.84;63.00;100825.41;5032611;28;20424;-72
2022/05/27 07:30:15;;;;;;;3.73;2.57;;;16.50;94.80;;;17.12;63.54;100830.03;5031578;28;20459;-70
2022/05/27 07:32:45;;;;;;;5.47;2.03;;;16.70;98.10;;;17.10;63.54;100831.31;5030644;28;20685;-71
2022/05/27 07:35:16;;;;;;;5.90;2.63;;;16.70;95.60;;;17.46;62.53;100833.59;5029721;28;20436;-69
2022/05/27 07:37:45;;;;;;;3.73;2.10;;;17.00;94.70;;;16.67;60.54;100830.00;5031612;28;20399;-71
2022/05/27 07:40:14;;;;;;;4.23;2.30;;;16.70;68.60;;;16.57;60.67;100828.94;5031477;28;20431;-71
2022/05/27 07:42:43;;;;;;;2.70;2.00;;;16.50;67.10;;;16.94;60.68;100835.72;5029641;28;20487;-71
2022/05/27 07:45:17;;;;;;;5.73;2.03;;;16.60;75.20;;;16.74;60.80;100822.50;5029733;28;20415;-71
2022/05/27 07:47:46;;;;;;;3.43;2.40;;;16.50;73.10;;;16.83;61.16;100834.69;5030693;28;21163;-71
2022/05/27 07:50:16;;;;;;;2.40;2.03;;;16.50;76.80;;;16.93;59.48;100845.81;5031230;28;20518;-71
2022/05/27 07:52:45;;;;;;;2.27;1.50;;;16.60;65.10;;;17.09;57.65;100841.44;5031091;28;20445;-71
2022/05/27 07:55:15;;;;;;;2.03;1.40;;;16.80;55.80;;;16.79;51.83;100855.38;5031893;28;20780;-72
2022/05/27 07:57:44;;;;;;;1.43;0.97;;;16.70;28.60;;;16.26;50.91;100838.41;5030667;28;20398;-70
2022/05/27 08:00:18;;;;;;;2.27;1.57;;;16.30;21.70;;;16.26;51.07;100847.44;5030574;28;20428;-70
2022/05/27 08:02:47;;;;;;;3.37;0.90;;;16.10;21.50;;;16.08;49.30;100853.88;5030675;28;20419;-71
2022/05/27 08:05:22;;;;;;;1.57;1.30;;;16.00;17.60;;;15.78;49.75;100866.00;5030678;28;20424;-72
2022/05/27 08:07:53;;;;;;;2.70;1.50;;;15.70;17.90;;;15.83;49.54;100849.75;5030286;28;20415;-71
2022/05/27 08:10:27;;;;;;;2.40;1.60;;;15.70;17.40;;;15.86;49.44;100846.53;5031060;28;20463;-71
2022/05/27 08:12:56;;;;;;;6.83;1.47;;;15.70;16.70;;;16.09;48.95;100844.63;5033512;28;20511;-71
2022/05/27 08:15:26;;;;;;;3.80;2.00;;;15.90;15.90;;;16.26;48.49;100850.19;5031908;28;20432;-70
2022/05/27 08:17:56;;;;;;;3.00;1.53;;;16.00;15.10;;;16.16;48.46;100838.19;5030824;28;20424;-73
2022/05/27 08:20:30;;;;;;;3.03;1.10;;;16.00;14.30;;;16.01;48.18;100849.59;5031903;28;20456;-72
2022/05/27 08:23:00;;;;;;;9.17;2.57;;;15.90;14.20;;;15.89;48.62;100837.84;5031669;28;20542;-71
2022/05/27 08:25:31;;;;;;;3.53;1.20;;;15.80;14.60;;;16.09;48.47;100841.88;5031214;28;20459;-72
2022/05/27 08:28:00;;;;;;;5.90;1.70;;;15.90;14.30;;;16.33;48.74;100844.56;5030676;28;20439;-70
2022/05/27 08:30:32;;;;;;;7.43;1.40;;;16.20;14.70;;;16.42;47.80;100854.88;5029922;28;20455;-70
2022/05/27 08:33:02;;;;;;;3.03;1.10;;;16.30;13.60;;;16.35;47.67;100847.91;5029952;28;20452;-72
2022/05/27 08:38:33;;;;;;;4.70;1.70;;;16.30;12.50;;;16.71;48.55;100850.28;5030556;28;20937;-69
2022/05/27 08:41:47;;;;;;;6.83;1.70;;;16.50;14.10;;;17.48;47.32;100845.09;5030019;28;20867;-70
2022/05/27 08:44:39;;;;;;;7.63;1.70;;;16.90;14.10;;;17.69;46.08;100870.94;4951447;28;20467;-71
2022/05/27 08:47:21;;;;;;;3.50;1.33;;;17.30;10.80;;;17.62;46.00;100843.72;4937839;29;20531;-71
2022/05/27 08:50:08;;;;;;;3.97;1.23;;;17.30;10.80;;;17.90;45.11;100839.22;5017974;28;20922;-69
2022/05/27 08:52:45;;;;;;;6.07;1.83;;;17.60;10.40;;;18.44;43.44;100860.25;5034358;28;20440;-71
2022/05/27 09:01:21;;;;;;;3.07;1.30;;;17.90;7.90;;;18.14;42.88;100851.63;5033459;28;20512;-70
2022/05/27 09:04:00;;;;;;;5.53;1.63;;;18.10;5.50;;;18.43;43.75;100842.16;5034391;28;20431;-71
2022/05/27 09:06:39;;;;;;;4.57;1.60;;;18.10;6.60;;;18.89;41.95;100848.19;5033701;28;20933;-70
2022/05/27 09:09:19;;;;;;;2.00;1.20;;;18.40;5.10;;;17.98;41.40;100841.53;5033599;28;20424;-70
2022/05/27 09:12:14;;;;;;;3.80;1.60;;;18.00;2.00;;;17.68;40.91;100845.47;5032031;28;20463;-69
2022/05/27 09:14:51;;;;;;;4.77;1.70;;;17.70;1.80;;;17.55;40.76;100856.72;5032037;28;20473;-70
2022/05/27 09:17:38;;;;;;;2.70;1.50;;;17.50;1.00;;;17.68;41.24;100841.91;5033578;28;20411;-71
2022/05/27 09:20:30;;;;;;;1.80;1.10;;;17.50;1.40;;;17.52;41.24;100843.56;5031942;28;20442;-72
2022/05/27 09:23:15;;;;;;;3.10;1.40;;;17.40;1.00;;;17.98;41.82;100844.28;5033650;28;20417;-70
2022/05/27 09:26:01;;;;;;;5.70;1.10;;;17.60;2.00;;;17.90;40.66;100844.72;5033513;28;20460;-71
2022/05/27 09:28:43;;;;;;;2.07;1.20;;;17.70;1.00;;;18.03;40.89;100825.19;5032741;28;20428;-72
2022/05/27 09:31:19;;;;;;;4.80;1.40;;;17.80;1.00;;;18.03;41.31;100838.88;5033789;28;20674;-71
2022/05/27 09:33:49;;;;;;;4.37;1.90;;;17.80;1.30;;;18.06;41.72;100835.59;5034485;28;20402;-71
2022/05/27 09:36:28;;;;;;;5.13;1.73;;;17.90;1.60;;;17.61;41.91;100842.09;5032615;28;20440;-71
2022/05/27 09:39:03;;;;;;;5.73;1.60;;;17.60;1.10;;;17.83;41.77;100838.56;5033412;28;20841;-72
2022/05/27 09:41:44;;;;;;;2.43;1.10;;;17.60;1.20;;;17.88;42.38;100846.84;5032775;28;20903;-71
2022/05/27 09:44:27;;;;;;;2.03;1.83;;;17.70;1.80;;;17.65;41.61;100845.97;5032930;28;20454;-72
2022/05/27 09:46:56;;;;;;;1.43;1.03;;;17.50;1.00;;;17.98;42.44;100849.75;5032707;28;20975;-71
2022/05/27 09:49:25;;;;;;;6.00;1.37;;;17.70;2.00;;;17.96;41.80;100843.72;5033208;28;20751;-71
2022/05/27 09:51:54;;;;;;;2.80;1.37;;;17.70;1.80;;;18.32;42.22;100873.22;5033847;28;20444;-72
2022/05/27 09:54:38;;;;;;;8.77;1.90;;;18.00;2.10;;;18.10;40.27;100840.34;5033610;28;20486;-71
2022/05/27 09:57:26;;;;;;;3.00;2.17;;;18.00;1.00;;;18.31;40.08;100844.19;5032593;28;20403;-71
2022/05/27 09:59:57;;;;;;;4.13;2.00;;;18.10;1.00;;;18.31;40.41;100859.78;5032186;28;20537;-72
2022/05/27 10:02:34;;;;;;;6.40;1.73;;;18.20;1.00;;;18.19;40.87;100866.22;5032572;28;20419;-72
2022/05/27 10:05:14;;;;;;;3.63;1.77;;;18.10;1.00;;;17.41;42.50;100862.78;5032472;28;20446;-69
2022/05/27 10:07:50;;;;;;;4.17;1.10;;;17.40;1.00;;;17.15;42.34;100858.75;5032943;28;20925;-72
2022/05/27 10:10:30;;;;;;;5.63;1.77;;;17.10;1.20;;;16.87;41.25;100852.25;5033059;28;20417;-71
2022/05/27 10:13:19;;;;;;;5.00;1.40;;;16.90;1.00;;;17.24;41.22;100860.00;5032361;28;20440;-70
2022/05/27 10:15:49;;;;;;;5.60;1.53;;;17.00;1.00;;;17.44;40.38;100856.81;5032574;28;20431;-72
2022/05/27 10:18:23;;;;;;;1.77;1.13;;;17.10;1.00;;;17.48;40.92;100856.06;5032658;28;20938;-70
2022/05/27 10:20:58;;;;;;;11.70;2.23;;;17.20;1.00;;;17.16;42.58;100860.44;5032524;28;20600;-70
2022/05/27 10:23:33;;;;;;;7.47;1.17;;;17.00;1.00;;;17.11;43.23;100842.03;5032572;28;20456;-71
2022/05/27 10:26:22;;;;;;;2.90;1.63;;;16.90;1.60;;;17.38;41.56;100855.88;5032125;28;20578;-70
2022/05/27 10:29:07;;;;;;;4.20;1.90;;;17.10;1.00;;;18.19;41.07;100848.97;5032203;28;20405;-71
2022/05/27 10:31:37;;;;;;;3.10;1.67;;;17.60;1.00;;;18.28;40.91;100854.81;5032100;28;20543;-71
2022/05/27 10:34:06;;;;;;;3.83;2.17;;;17.90;1.00;;;18.51;40.69;100836.22;5032453;28;20466;-71
2022/05/27 10:36:56;;;;;;;4.77;2.00;;;18.10;1.00;;;18.11;40.62;100836.50;5031797;28;20403;-70
2022/05/27 10:39:31;;;;;;;7.20;2.00;;;18.00;1.00;;;17.98;41.71;100842.38;5033830;28;20757;-70
2022/05/27 10:42:20;;;;;;;3.23;1.30;;;17.80;1.00;;;17.87;42.12;100845.19;5034035;28;20472;-73
2022/05/27 10:45:16;;;;;;;12.47;2.20;;;17.70;1.00;;;17.83;42.93;100855.00;5034050;28;20474;-70
2022/05/27 10:48:24;;;;;;;3.50;2.93;;;17.60;1.80;;;17.89;42.94;100845.78;5031886;28;20387;-69
2022/05/27 10:51:05;;;;;;;3.90;2.10;;;17.70;1.90;;;18.28;42.83;100833.75;5030464;28;20438;-72
2022/05/27 10:54:06;;;;;;;5.30;1.60;;;17.90;2.20;;;19.10;41.10;100825.38;5031696;28;20402;-69
2022/05/27 11:02:04;;;;;;;3.97;1.33;;;18.60;2.30;;;19.23;40.46;100833.16;5031505;28;20424;-69
2022/05/27 11:03:41;;;;;;;5.53;1.70;;;18.40;1.00;;;18.91;38.60;100821.34;5029903;28;20434;-71
2022/05/27 11:06:40;;;;;;;10.27;2.33;;;18.50;1.00;;;19.55;38.95;100810.41;5030827;28;20475;-71